createdAt,value
2022-08-26T00:00:58.471Z,98095.72
2022-08-26T00:03:24.861Z,98094.41
2022-08-26T00:05:51.231Z,98087.03
2022-08-26T00:08:18.184Z,98089.59
2022-08-26T00:10:44.560Z,98085.84
2022-08-26T00:13:10.972Z,98089.38
2022-08-26T00:15:37.667Z,98083.97
2022-08-26T00:18:04.406Z,98080.94
2022-08-26T00:20:43.299Z,98089.03
2022-08-26T00:23:09.660Z,98080.78
2022-08-26T00:25:36.261Z,98083.13
2022-08-26T00:28:08.968Z,98083.13
2022-08-26T00:30:37.464Z,98082.75
2022-08-26T00:33:05.523Z,98082.97
2022-08-26T00:35:32.404Z,98084.63
2022-08-26T00:38:00.143Z,98080.22
2022-08-26T00:40:32.411Z,98076.84
2022-08-26T00:42:59.645Z,98073.56
2022-08-26T00:45:26.127Z,98073.22
2022-08-26T00:48:00.139Z,98083.97
2022-08-26T00:50:29.501Z,98082.16
2022-08-26T00:52:56.078Z,98083.66
2022-08-26T00:55:27.518Z,98083.22
2022-08-26T00:58:04.743Z,98077.66
2022-08-26T01:00:31.121Z,98071.56
2022-08-26T01:02:57.686Z,98076.88
2022-08-26T01:05:24.224Z,98070.97
2022-08-26T01:07:50.587Z,98072.31
2022-08-26T01:10:18.077Z,98075.22
2022-08-26T01:13:13.913Z,98076.53
2022-08-26T01:15:44.890Z,98069.16
2022-08-26T01:18:11.321Z,98077.25
2022-08-26T01:20:41.452Z,98066.25
2022-08-26T01:23:08.703Z,98078.34
2022-08-26T01:25:37.063Z,98077.41
2022-08-26T01:28:07.159Z,98067.28
2022-08-26T01:30:33.567Z,98070.53
2022-08-26T01:33:00.980Z,98076.25
2022-08-26T01:35:27.598Z,98072.06
2022-08-26T01:38:02.241Z,98074.03
2022-08-26T01:40:32.002Z,98075.34
2022-08-26T01:42:58.818Z,98084.69
2022-08-26T01:45:25.876Z,98081.94
2022-08-26T01:47:57.176Z,98084.88
2022-08-26T01:50:30.426Z,98082.25
2022-08-26T01:52:57.633Z,98082.91
2022-08-26T01:55:29.306Z,98075.41
2022-08-26T01:57:59.128Z,98079.84
2022-08-26T02:00:26.623Z,98079.44
2022-08-26T02:03:16.610Z,98073.97
2022-08-26T02:05:53.303Z,98077.53
2022-08-26T02:08:24.853Z,98074.56
2022-08-26T02:10:51.852Z,98076.22
2022-08-26T02:13:21.274Z,98076.09
2022-08-26T02:15:49.129Z,98072.59
2022-08-26T02:18:16.050Z,98073.00
2022-08-26T02:20:42.810Z,98082.44
2022-08-26T02:23:09.404Z,98076.06
2022-08-26T02:25:49.672Z,98078.09
2022-08-26T02:28:17.590Z,98070.91
2022-08-26T02:30:47.090Z,98070.84
2022-08-26T02:33:13.456Z,98065.25
2022-08-26T02:35:39.844Z,98071.66
2022-08-26T02:38:10.999Z,98063.97
2022-08-26T02:40:40.456Z,98071.16
2022-08-26T02:43:08.594Z,98061.53
2022-08-26T02:45:35.226Z,98068.75
2022-08-26T02:48:03.731Z,98064.34
2022-08-26T02:50:30.172Z,98062.22
2022-08-26T02:55:24.696Z,98057.69
2022-08-26T02:57:52.008Z,98055.25
2022-08-26T03:00:18.431Z,98052.00
2022-08-26T03:02:45.052Z,98056.06
2022-08-26T03:05:11.690Z,98050.03
2022-08-26T03:07:38.066Z,98042.88
2022-08-26T03:10:08.389Z,98045.72
2022-08-26T03:12:35.422Z,98045.81
2022-08-26T03:15:01.832Z,98031.59
2022-08-26T03:17:28.230Z,98038.53
2022-08-26T03:19:57.234Z,98040.56
2022-08-26T03:22:23.867Z,98036.38
2022-08-26T03:24:50.452Z,98035.22
2022-08-26T03:27:17.603Z,98037.28
2022-08-26T03:30:02.663Z,98033.72
2022-08-26T03:32:29.015Z,98028.50
2022-08-26T03:34:56.391Z,98040.31
2022-08-26T03:37:22.762Z,98021.94
2022-08-26T03:39:49.180Z,98024.09
2022-08-26T03:42:15.862Z,98028.16
2022-08-26T03:44:42.375Z,98022.56
2022-08-26T03:47:08.772Z,98022.75
2022-08-26T03:49:35.819Z,98025.78
2022-08-26T03:52:02.535Z,98023.69
2022-08-26T03:54:30.120Z,98026.63
2022-08-26T03:56:56.476Z,98024.63
2022-08-26T03:59:23.658Z,98024.31
2022-08-26T04:01:50.960Z,98018.25
2022-08-26T04:04:17.826Z,98024.25
2022-08-26T04:06:44.752Z,98021.13
2022-08-26T04:09:17.908Z,98023.50
2022-08-26T04:11:44.408Z,98016.38
2022-08-26T04:14:13.373Z,98018.72
2022-08-26T04:16:40.122Z,98022.59
2022-08-26T04:19:06.600Z,98021.84
2022-08-26T04:21:33.850Z,98017.34
2022-08-26T04:24:00.232Z,98016.41
2022-08-26T04:26:30.893Z,98022.19
2022-08-26T04:28:58.627Z,98017.13
2022-08-26T04:31:26.243Z,98019.59
2022-08-26T04:33:53.007Z,98017.59
2022-08-26T04:36:19.921Z,98022.63
2022-08-26T04:38:49.544Z,98019.47
2022-08-26T04:41:18.305Z,98020.66
2022-08-26T04:43:44.669Z,98025.44
2022-08-26T04:46:12.985Z,98021.84
2022-08-26T04:48:40.835Z,98022.16
2022-08-26T04:51:07.219Z,98031.97
2022-08-26T04:53:34.781Z,98024.34
2022-08-26T04:56:01.238Z,98031.09
2022-08-26T04:58:30.198Z,98025.38
2022-08-26T05:00:56.662Z,98023.59
2022-08-26T05:03:23.626Z,98026.81
2022-08-26T05:05:50.122Z,98029.22
2022-08-26T05:08:17.309Z,98025.13
2022-08-26T05:10:46.122Z,98020.09
2022-08-26T05:13:15.381Z,98023.16
2022-08-26T05:15:42.178Z,98022.38
2022-08-26T05:18:08.780Z,98017.75
2022-08-26T05:20:41.375Z,98020.78
2022-08-26T05:23:07.973Z,98027.81
2022-08-26T05:25:38.703Z,98031.53
2022-08-26T05:28:06.098Z,98027.13
2022-08-26T05:30:32.658Z,98033.41
2022-08-26T05:33:01.824Z,98036.28
2022-08-26T05:37:58.769Z,98035.22
2022-08-26T05:40:25.518Z,98034.19
2022-08-26T05:42:52.945Z,98041.25
2022-08-26T05:45:19.857Z,98030.66
2022-08-26T05:47:46.317Z,98036.09
2022-08-26T05:50:13.811Z,98039.25
2022-08-26T05:52:40.739Z,98047.53
2022-08-26T05:55:07.186Z,98049.34
2022-08-26T05:57:37.440Z,98035.38
2022-08-26T06:00:06.609Z,98044.50
2022-08-26T06:02:33.028Z,98047.53
2022-08-26T06:04:59.396Z,98044.72
2022-08-26T06:07:45.749Z,98047.47
2022-08-26T06:10:31.424Z,98044.97
2022-08-26T06:13:00.747Z,98044.28
2022-08-26T06:15:31.149Z,98044.44
2022-08-26T06:17:57.810Z,98050.13
2022-08-26T06:20:24.162Z,98039.97
2022-08-26T06:23:11.497Z,98033.09
2022-08-26T06:25:38.507Z,98041.59
2022-08-26T06:28:05.246Z,98037.06
2022-08-26T06:30:32.403Z,98043.34
2022-08-26T06:32:59.143Z,98042.28
2022-08-26T06:35:26.424Z,98047.03
2022-08-26T06:37:53.043Z,98042.84
2022-08-26T06:40:20.917Z,98049.19
2022-08-26T06:42:47.314Z,98049.09
2022-08-26T06:45:14.079Z,98045.25
2022-08-26T06:47:40.439Z,98047.19
2022-08-26T06:50:06.978Z,98046.88
2022-08-26T06:52:33.333Z,98044.84
2022-08-26T06:55:01.095Z,98052.94
2022-08-26T06:57:28.558Z,98052.50
2022-08-26T06:59:58.023Z,98055.59
2022-08-26T07:02:24.901Z,98055.09
2022-08-26T07:04:56.852Z,98065.41
2022-08-26T07:07:23.329Z,98063.75
2022-08-26T07:09:52.639Z,98069.91
2022-08-26T07:12:19.150Z,98069.09
2022-08-26T07:14:47.430Z,98070.47
2022-08-26T07:17:14.854Z,98072.72
2022-08-26T07:19:41.206Z,98074.00
2022-08-26T07:22:08.547Z,98070.13
2022-08-26T07:24:37.838Z,98078.53
2022-08-26T07:27:05.817Z,98075.47
2022-08-26T07:29:32.337Z,98086.25
2022-08-26T07:31:58.701Z,98092.50
2022-08-26T07:34:26.456Z,98091.59
2022-08-26T07:36:52.994Z,98095.34
2022-08-26T07:39:19.479Z,98089.97
2022-08-26T07:41:47.317Z,98099.06
2022-08-26T07:44:14.139Z,98101.59
2022-08-26T07:46:40.979Z,98100.53
2022-08-26T07:49:11.082Z,98092.13
2022-08-26T07:51:37.674Z,98107.19
2022-08-26T07:54:04.507Z,98097.72
2022-08-26T07:56:30.945Z,98095.94
2022-08-26T07:58:57.754Z,98110.00
2022-08-26T08:01:24.686Z,98098.88
2022-08-26T08:03:52.339Z,98105.75
2022-08-26T08:06:19.521Z,98107.16
2022-08-26T08:08:45.936Z,98104.72
2022-08-26T08:11:12.281Z,98102.16
2022-08-26T08:13:38.661Z,98108.72
2022-08-26T08:16:05.091Z,98109.81
2022-08-26T08:18:31.463Z,98109.00
2022-08-26T08:21:10.812Z,98112.03
2022-08-26T08:23:45.792Z,98113.16
2022-08-26T08:26:12.544Z,98112.94
2022-08-26T08:28:39.618Z,98111.97
2022-08-26T08:31:08.003Z,98112.69
2022-08-26T08:33:34.987Z,98110.34
2022-08-26T08:36:01.401Z,98111.41
2022-08-26T08:38:28.058Z,98116.03
2022-08-26T08:40:54.412Z,98112.19
2022-08-26T08:43:30.471Z,98112.72
2022-08-26T08:45:58.226Z,98116.41
2022-08-26T08:48:28.025Z,98118.78
2022-08-26T08:50:55.800Z,98116.72
2022-08-26T08:53:35.574Z,98119.75
2022-08-26T08:56:09.200Z,98112.44
2022-08-26T08:58:41.453Z,98114.97
2022-08-26T09:01:11.977Z,98112.59
2022-08-26T09:03:42.081Z,98120.53
2022-08-26T09:06:16.948Z,98121.72
2022-08-26T09:08:44.328Z,98117.34
2022-08-26T09:11:10.950Z,98112.59
2022-08-26T09:13:37.976Z,98108.19
2022-08-26T09:16:10.039Z,98109.91
2022-08-26T09:18:55.365Z,98112.28
2022-08-26T09:21:25.408Z,98104.53
2022-08-26T09:23:52.141Z,98109.59
2022-08-26T09:26:37.996Z,98107.69
2022-08-26T09:29:05.613Z,98105.94
2022-08-26T09:31:34.102Z,98112.25
2022-08-26T09:34:06.441Z,98113.63
2022-08-26T09:36:43.877Z,98115.09
2022-08-26T09:39:29.056Z,98104.19
2022-08-26T09:42:22.442Z,98111.19
2022-08-26T09:44:59.384Z,98101.31
2022-08-26T09:47:27.919Z,98098.53
2022-08-26T09:50:14.387Z,98097.59
2022-08-26T09:52:42.957Z,98094.53
2022-08-26T09:55:09.301Z,98102.69
2022-08-26T09:57:36.684Z,98089.31
2022-08-26T10:00:11.456Z,98088.38
2022-08-26T10:02:38.215Z,98086.31
2022-08-26T10:05:09.605Z,98084.88
2022-08-26T10:07:43.485Z,98087.72
2022-08-26T10:10:14.307Z,98084.22
2022-08-26T10:12:43.148Z,98078.09
2022-08-26T10:15:09.695Z,98076.06
2022-08-26T10:17:39.833Z,98065.66
2022-08-26T10:20:22.948Z,98069.00
2022-08-26T10:22:57.273Z,98064.72
2022-08-26T10:25:25.976Z,98069.16
2022-08-26T10:28:04.720Z,98055.63
2022-08-26T10:30:41.011Z,98056.19
2022-08-26T10:33:10.400Z,98055.91
2022-08-26T10:35:37.359Z,98040.16
2022-08-26T10:38:14.376Z,98046.34
2022-08-26T10:40:44.609Z,98046.06
2022-08-26T10:43:27.147Z,98045.41
2022-08-26T10:45:54.591Z,98038.19
2022-08-26T10:48:35.571Z,98048.34
2022-08-26T10:51:03.306Z,98040.00
2022-08-26T10:53:32.645Z,98055.81
2022-08-26T10:56:18.814Z,98053.16
2022-08-26T10:58:54.798Z,98051.38
2022-08-26T11:01:46.859Z,98038.06
2022-08-26T11:04:35.010Z,98037.69
2022-08-26T11:07:20.418Z,98037.47
2022-08-26T11:09:48.026Z,98046.81
2022-08-26T11:12:34.375Z,98050.53
2022-08-26T11:15:02.135Z,98042.34
2022-08-26T11:17:46.921Z,98037.25
2022-08-26T11:20:22.570Z,98028.47
2022-08-26T11:22:50.718Z,98027.63
2022-08-26T11:25:18.300Z,98028.09
2022-08-26T11:27:48.069Z,98023.00
2022-08-26T11:30:19.606Z,98030.28
2022-08-26T11:32:49.351Z,98033.75
2022-08-26T11:35:19.451Z,98024.00
2022-08-26T11:37:47.847Z,98026.22
2022-08-26T11:40:15.532Z,98024.25
2022-08-26T11:42:55.574Z,98018.47
2022-08-26T11:45:24.939Z,98029.63
2022-08-26T11:47:51.375Z,98029.69
2022-08-26T11:50:17.675Z,98017.06
2022-08-26T11:52:51.445Z,98015.69
2022-08-26T11:55:17.811Z,98009.09
2022-08-26T11:57:47.014Z,98005.88
2022-08-26T12:00:22.267Z,98003.06
2022-08-26T12:02:49.083Z,98008.03
2022-08-26T12:05:17.153Z,98000.00
2022-08-26T12:07:43.527Z,98002.31
2022-08-26T12:10:11.139Z,98014.47
2022-08-26T12:12:38.660Z,98006.22
2022-08-26T12:15:06.224Z,98017.22
2022-08-26T12:17:32.598Z,98012.78
2022-08-26T12:19:58.972Z,98011.03
2022-08-26T12:22:29.320Z,98012.00
2022-08-26T12:24:56.959Z,98001.69
2022-08-26T12:27:24.487Z,97990.84
2022-08-26T12:30:00.915Z,97995.22
2022-08-26T12:32:27.998Z,97994.38
2022-08-26T12:34:55.160Z,97988.91
2022-08-26T12:37:21.821Z,97977.19
2022-08-26T12:39:49.116Z,97985.88
2022-08-26T12:42:15.787Z,97979.34
2022-08-26T12:44:54.054Z,97985.34
2022-08-26T12:47:39.025Z,97989.22
2022-08-26T12:50:10.136Z,97983.97
2022-08-26T12:52:51.754Z,97976.47
2022-08-26T12:55:19.599Z,97980.94
2022-08-26T12:57:47.310Z,97977.81
2022-08-26T13:00:26.280Z,97971.31
2022-08-26T13:02:54.906Z,97972.38
2022-08-26T13:05:28.713Z,97976.25
2022-08-26T13:08:14.431Z,97974.13
2022-08-26T13:10:42.091Z,97967.78
2022-08-26T13:13:08.604Z,97955.56
2022-08-26T13:15:35.094Z,97957.03
2022-08-26T13:18:03.395Z,97947.94
2022-08-26T13:20:30.987Z,97940.53
2022-08-26T13:23:09.077Z,97935.16
2022-08-26T13:25:35.507Z,97946.31
2022-08-26T13:28:01.887Z,97944.19
2022-08-26T13:30:28.255Z,97953.28
2022-08-26T13:32:56.196Z,97963.41
2022-08-26T13:35:23.111Z,97959.16
2022-08-26T13:37:49.923Z,97957.19
2022-08-26T13:40:16.342Z,97958.31
2022-08-26T13:42:43.071Z,97958.00
2022-08-26T13:45:16.385Z,97969.88
2022-08-26T13:47:42.753Z,97962.28
2022-08-26T13:50:09.178Z,97962.91
2022-08-26T13:52:35.556Z,97962.56
2022-08-26T13:55:02.065Z,97966.28
2022-08-26T13:57:28.592Z,97975.41
2022-08-26T13:59:56.468Z,97977.31
2022-08-26T14:02:22.951Z,97977.63
2022-08-26T14:04:49.317Z,97967.66
2022-08-26T14:07:15.677Z,97979.53
2022-08-26T14:09:42.097Z,97970.66
2022-08-26T14:12:08.525Z,97968.44
2022-08-26T14:14:34.957Z,97973.63
2022-08-26T14:17:01.334Z,97988.97
2022-08-26T14:19:31.174Z,97989.94
2022-08-26T14:21:57.781Z,97996.56
2022-08-26T14:24:24.373Z,97996.06
2022-08-26T14:26:50.746Z,97998.22
2022-08-26T14:29:17.181Z,97983.81
2022-08-26T14:31:43.691Z,97976.84
2022-08-26T14:34:10.107Z,97974.31
2022-08-26T14:36:36.616Z,97960.78
2022-08-26T14:39:07.066Z,97963.19
2022-08-26T14:41:34.231Z,97971.91
2022-08-26T14:44:01.946Z,97960.63
2022-08-26T14:46:29.038Z,97982.19
2022-08-26T14:48:57.439Z,97965.94
2022-08-26T14:51:28.419Z,97974.28
2022-08-26T14:54:12.905Z,97970.44
2022-08-26T14:56:59.492Z,97951.25
2022-08-26T14:59:29.764Z,97945.69
2022-08-26T15:01:56.468Z,97935.34
2022-08-26T15:04:23.444Z,97937.97
2022-08-26T15:06:49.938Z,97943.22
2022-08-26T15:09:16.335Z,97952.28
2022-08-26T15:11:42.747Z,97965.53
2022-08-26T15:14:14.827Z,97954.72
2022-08-26T15:16:49.773Z,97940.28
2022-08-26T15:19:16.366Z,97946.50
2022-08-26T15:21:43.359Z,97948.44
2022-08-26T15:24:11.963Z,97950.16
2022-08-26T15:26:38.341Z,97953.78
2022-08-26T15:29:05.376Z,97954.69
2022-08-26T15:31:32.037Z,97957.06
2022-08-26T15:33:59.823Z,97961.72
2022-08-26T15:36:26.798Z,97965.78
2022-08-26T15:38:53.379Z,97951.16
2022-08-26T15:41:19.726Z,97963.44
2022-08-26T15:43:46.137Z,97962.41
2022-08-26T15:46:12.556Z,97953.06
2022-08-26T15:48:39.760Z,97968.41
2022-08-26T15:51:07.464Z,97965.56
2022-08-26T15:53:34.083Z,97972.66
2022-08-26T15:56:00.827Z,97967.84
2022-08-26T15:58:27.702Z,97965.47
2022-08-26T16:00:54.664Z,97969.50
2022-08-26T16:03:21.026Z,97969.47
2022-08-26T16:05:47.431Z,97979.50
2022-08-26T16:08:14.211Z,97987.38
2022-08-26T16:10:45.456Z,97987.72
2022-08-26T16:13:16.064Z,98001.94
2022-08-26T16:15:42.589Z,98007.97
2022-08-26T16:18:09.186Z,98008.22
2022-08-26T16:20:36.178Z,98012.03
2022-08-26T16:23:02.615Z,98006.31
2022-08-26T16:25:29.113Z,97986.97
2022-08-26T16:27:55.480Z,97999.28
2022-08-26T16:30:22.014Z,97999.66
2022-08-26T16:32:48.576Z,98005.69
2022-08-26T16:35:15.191Z,98005.44
2022-08-26T16:37:42.021Z,98006.13
2022-08-26T16:40:13.113Z,97999.69
2022-08-26T16:42:40.563Z,98003.56
2022-08-26T16:45:07.216Z,98004.44
2022-08-26T16:47:36.795Z,98003.56
2022-08-26T16:50:04.322Z,98001.97
2022-08-26T16:52:31.463Z,97987.22
2022-08-26T16:54:58.565Z,97982.00
2022-08-26T16:57:24.911Z,97981.00
2022-08-26T16:59:51.325Z,97987.97
2022-08-26T17:02:18.180Z,97984.75
2022-08-26T17:04:47.184Z,97992.94
2022-08-26T17:07:16.647Z,97978.97
2022-08-26T17:09:43.086Z,97981.63
2022-08-26T17:12:09.679Z,97982.41
2022-08-26T17:14:36.067Z,97989.31
2022-08-26T17:17:03.137Z,97990.28
2022-08-26T17:19:29.491Z,97995.34
2022-08-26T17:22:02.965Z,97999.03
2022-08-26T17:24:33.103Z,97992.06
2022-08-26T17:27:00.393Z,97988.19
2022-08-26T17:29:26.806Z,97982.25
2022-08-26T17:31:55.491Z,97980.56
2022-08-26T17:34:21.896Z,97979.78
2022-08-26T17:36:52.867Z,97986.38
2022-08-26T17:39:19.283Z,97994.63
2022-08-26T17:41:55.893Z,98003.28
2022-08-26T17:44:22.325Z,98001.25
2022-08-26T17:46:48.702Z,98012.91
2022-08-26T17:49:15.557Z,98012.38
2022-08-26T17:51:42.210Z,98009.69
2022-08-26T17:54:11.731Z,98018.31
2022-08-26T17:56:38.402Z,98029.00
2022-08-26T17:59:04.750Z,98031.84
2022-08-26T18:01:31.290Z,98022.19
2022-08-26T18:04:00.454Z,98021.69
2022-08-26T18:06:30.898Z,98022.31
2022-08-26T18:08:57.858Z,98022.19
2022-08-26T18:11:24.672Z,98029.78
2022-08-26T18:13:51.345Z,98032.88
2022-08-26T18:16:19.345Z,98038.69
2022-08-26T18:18:46.498Z,98041.06
2022-08-26T18:21:14.020Z,98047.59
2022-08-26T18:23:40.365Z,98043.53
2022-08-26T18:26:06.855Z,98051.47
2022-08-26T18:28:35.366Z,98044.75
2022-08-26T18:31:02.522Z,98050.84
2022-08-26T18:33:30.147Z,98065.09
2022-08-26T18:35:56.525Z,98073.44
2022-08-26T18:38:22.887Z,98065.34
2022-08-26T18:40:54.892Z,98078.00
2022-08-26T18:43:22.037Z,98066.31
2022-08-26T18:45:48.559Z,98081.13
2022-08-26T18:48:14.977Z,98076.03
2022-08-26T18:50:43.853Z,98080.53
2022-08-26T18:53:13.451Z,98079.31
2022-08-26T18:55:39.992Z,98073.03
2022-08-26T18:58:06.414Z,98058.22
2022-08-26T19:00:33.269Z,98063.22
2022-08-26T19:02:59.827Z,98063.94
2022-08-26T19:05:27.347Z,98058.81
2022-08-26T19:07:53.691Z,98050.28
2022-08-26T19:10:20.649Z,98056.34
2022-08-26T19:12:47.023Z,98049.06
2022-08-26T19:15:18.356Z,98050.50
2022-08-26T19:17:45.054Z,98052.88
2022-08-26T19:20:11.432Z,98051.66
2022-08-26T19:22:37.784Z,98060.44
2022-08-26T19:25:04.208Z,98063.31
2022-08-26T19:27:30.583Z,98063.72
2022-08-26T19:29:57.611Z,98062.09
2022-08-26T19:32:24.306Z,98066.97
2022-08-26T19:34:51.340Z,98064.91
2022-08-26T19:37:18.328Z,98064.97
2022-08-26T19:39:44.740Z,98056.78
2022-08-26T19:42:11.087Z,98051.25
2022-08-26T19:44:56.309Z,98051.28
2022-08-26T19:47:22.699Z,98046.91
2022-08-26T19:49:53.053Z,98059.47
2022-08-26T19:52:23.155Z,98054.56
2022-08-26T19:54:56.452Z,98062.97
2022-08-26T19:57:22.840Z,98066.72
2022-08-26T19:59:49.283Z,98067.94
2022-08-26T20:02:16.192Z,98076.66
2022-08-26T20:04:42.744Z,98084.44
2022-08-26T20:07:09.123Z,98091.19
2022-08-26T20:09:35.550Z,98083.66
2022-08-26T20:12:02.626Z,98082.38
2022-08-26T20:14:29.810Z,98083.13
2022-08-26T20:16:56.272Z,98093.13
2022-08-26T20:19:41.501Z,98099.72
2022-08-26T20:22:07.947Z,98101.97
2022-08-26T20:24:35.036Z,98098.69
2022-08-26T20:27:05.493Z,98099.19
2022-08-26T20:29:34.652Z,98104.88
2022-08-26T20:32:01.094Z,98098.72
2022-08-26T20:34:27.866Z,98097.22
2022-08-26T20:36:54.255Z,98097.16
2022-08-26T20:39:23.678Z,98099.09
2022-08-26T20:41:50.060Z,98107.06
2022-08-26T20:44:17.552Z,98113.88
2022-08-26T20:46:44.019Z,98111.78
2022-08-26T20:49:10.396Z,98112.63
2022-08-26T20:51:37.409Z,98113.84
2022-08-26T20:54:05.003Z,98115.47
2022-08-26T20:56:31.380Z,98114.59
2022-08-26T20:58:59.134Z,98115.97
2022-08-26T21:01:30.428Z,98118.44
2022-08-26T21:03:56.941Z,98126.50
2022-08-26T21:06:23.400Z,98124.13
2022-08-26T21:08:50.199Z,98124.59
2022-08-26T21:11:18.011Z,98121.38
2022-08-26T21:14:03.900Z,98118.22
2022-08-26T21:16:30.636Z,98113.84
2022-08-26T21:18:57.607Z,98125.97
2022-08-26T21:21:29.878Z,98130.16
2022-08-26T21:23:56.254Z,98135.69
2022-08-26T21:26:22.741Z,98129.69
2022-08-26T21:28:49.171Z,98129.75
2022-08-26T21:31:16.639Z,98139.72
2022-08-26T21:33:43.044Z,98145.00
2022-08-26T21:36:09.642Z,98137.78
2022-08-26T21:38:36.870Z,98142.53
2022-08-26T21:41:04.601Z,98145.00
2022-08-26T21:43:35.062Z,98146.75
2022-08-26T21:46:02.747Z,98150.09
2022-08-26T21:48:33.205Z,98161.47
2022-08-26T21:51:01.110Z,98158.28
2022-08-26T21:53:27.482Z,98159.94
2022-08-26T21:55:54.128Z,98168.09
2022-08-26T21:58:20.482Z,98170.38
2022-08-26T22:00:48.161Z,98163.97
2022-08-26T22:03:14.665Z,98163.31
2022-08-26T22:05:44.540Z,98160.06
2022-08-26T22:08:11.107Z,98161.72
2022-08-26T22:10:38.441Z,98164.88
2022-08-26T22:13:06.342Z,98164.88
2022-08-26T22:15:35.335Z,98166.16
2022-08-26T22:18:03.474Z,98167.28
2022-08-26T22:20:31.039Z,98153.53
2022-08-26T22:22:58.637Z,98154.00
2022-08-26T22:25:25.347Z,98149.63
2022-08-26T22:27:51.717Z,98158.84
2022-08-26T22:30:19.755Z,98163.25
2022-08-26T22:32:46.579Z,98154.03
2022-08-26T22:35:29.242Z,98150.56
2022-08-26T22:37:57.259Z,98159.78
2022-08-26T22:40:24.328Z,98149.38
2022-08-26T22:42:55.740Z,98136.94
2022-08-26T22:45:26.909Z,98141.06
2022-08-26T22:47:53.299Z,98135.84
2022-08-26T22:50:19.695Z,98130.25
2022-08-26T22:52:46.059Z,98133.06
2022-08-26T22:55:12.444Z,98129.13
2022-08-26T22:57:39.006Z,98137.50
2022-08-26T23:00:05.878Z,98129.56
2022-08-26T23:02:32.297Z,98128.78
2022-08-26T23:04:58.675Z,98131.63
2022-08-26T23:07:25.049Z,98140.84
2022-08-26T23:09:51.404Z,98133.19
2022-08-26T23:12:18.047Z,98134.38
2022-08-26T23:14:44.415Z,98127.56
2022-08-26T23:17:11.198Z,98125.16
2022-08-26T23:19:37.582Z,98114.78
2022-08-26T23:22:03.972Z,98117.63
2022-08-26T23:24:30.364Z,98106.44
2022-08-26T23:26:56.737Z,98096.41
2022-08-26T23:29:23.095Z,98101.16
2022-08-26T23:31:49.528Z,98097.19
2022-08-26T23:34:34.461Z,98101.66
2022-08-26T23:37:00.998Z,98097.22
2022-08-26T23:39:27.444Z,98095.63
2022-08-26T23:41:53.872Z,98092.44
2022-08-26T23:44:20.729Z,98098.53
2022-08-26T23:46:47.123Z,98101.34
2022-08-26T23:49:13.524Z,98092.53
2022-08-26T23:51:58.576Z,98092.94
2022-08-26T23:54:24.945Z,98083.31
2022-08-26T23:56:51.338Z,98086.13
2022-08-26T23:59:17.705Z,98084.19
